sensor_id;sensor_type;location;lat;lon;timestamp;pressure;altitude;pressure_sealevel;temperature;humidity
5954;BME280;3002;42.642;24.812;2023-05-19T00:01:50;96342.94;;;18.02;75.95
5954;BME280;3002;42.642;24.812;2023-05-19T00:04:17;96324.84;;;18.55;72.47
5954;BME280;3002;42.642;24.812;2023-05-19T00:06:43;96342.03;;;18.47;75.61
5954;BME280;3002;42.642;24.812;2023-05-19T00:09:15;96335.28;;;18.53;77.47
5954;BME280;3002;42.642;24.812;2023-05-19T00:11:40;96351.75;;;17.54;88.72
5954;BME280;3002;42.642;24.812;2023-05-19T00:14:07;96370.03;;;17.57;89.41
5954;BME280;3002;42.642;24.812;2023-05-19T00:16:33;96373.25;;;17.38;90.32
5954;BME280;3002;42.642;24.812;2023-05-19T00:19:01;96371.41;;;17.84;81.58
5954;BME280;3002;42.642;24.812;2023-05-19T00:21:28;96354.03;;;18.22;79.41
5954;BME280;3002;42.642;24.812;2023-05-19T00:23:54;96357.81;;;17.72;81.52
5954;BME280;3002;42.642;24.812;2023-05-19T00:26:19;96393.22;;;17.54;85.12
5954;BME280;3002;42.642;24.812;2023-05-19T00:28:47;96354.16;;;18.50;75.30
5954;BME280;3002;42.642;24.812;2023-05-19T00:31:17;96388.34;;;19.28;73.01
5954;BME280;3002;42.642;24.812;2023-05-19T00:33:43;96364.53;;;18.11;76.89
5954;BME280;3002;42.642;24.812;2023-05-19T00:36:08;96367.50;;;18.79;75.81
5954;BME280;3002;42.642;24.812;2023-05-19T00:38:35;96391.94;;;18.30;78.19
5954;BME280;3002;42.642;24.812;2023-05-19T00:41:02;96392.19;;;18.50;74.02
5954;BME280;3002;42.642;24.812;2023-05-19T00:43:28;96393.09;;;18.66;73.34
5954;BME280;3002;42.642;24.812;2023-05-19T00:45:56;96398.25;;;19.08;73.90
5954;BME280;3002;42.642;24.812;2023-05-19T00:48:24;96389.66;;;18.93;75.04
5954;BME280;3002;42.642;24.812;2023-05-19T00:50:49;96382.53;;;18.52;78.77
5954;BME280;3002;42.642;24.812;2023-05-19T00:53:17;96364.78;;;18.91;76.16
5954;BME280;3002;42.642;24.812;2023-05-19T00:55:42;96361.50;;;18.61;77.39
5954;BME280;3002;42.642;24.812;2023-05-19T00:58:09;96388.66;;;18.49;78.24
5954;BME280;3002;42.642;24.812;2023-05-19T01:00:35;96381.53;;;18.32;77.52
5954;BME280;3002;42.642;24.812;2023-05-19T01:03:02;96345.91;;;18.22;75.69
5954;BME280;3002;42.642;24.812;2023-05-19T01:05:37;96338.88;;;18.57;72.20
5954;BME280;3002;42.642;24.812;2023-05-19T01:08:04;96333.91;;;18.59;71.84
5954;BME280;3002;42.642;24.812;2023-05-19T01:10:30;96305.94;;;18.46;68.54
5954;BME280;3002;42.642;24.812;2023-05-19T01:12:55;96320.31;;;18.47;72.11
5954;BME280;3002;42.642;24.812;2023-05-19T01:15:22;96292.03;;;18.60;71.08
5954;BME280;3002;42.642;24.812;2023-05-19T01:18:03;96306.28;;;18.69;69.12
5954;BME280;3002;42.642;24.812;2023-05-19T01:20:40;96317.03;;;18.78;69.57
5954;BME280;3002;42.642;24.812;2023-05-19T01:28:53;96344.72;;;18.96;69.24
5954;BME280;3002;42.642;24.812;2023-05-19T01:31:21;96345.00;;;18.54;68.82
5954;BME280;3002;42.642;24.812;2023-05-19T01:33:52;96325.50;;;18.64;68.13
5954;BME280;3002;42.642;24.812;2023-05-19T01:36:19;96352.22;;;18.75;68.30
5954;BME280;3002;42.642;24.812;2023-05-19T01:38:48;96379.28;;;18.83;66.88
5954;BME280;3002;42.642;24.812;2023-05-19T01:41:15;96321.25;;;18.39;70.82
5954;BME280;3002;42.642;24.812;2023-05-19T01:43:42;96410.03;;;18.51;69.57
5954;BME280;3002;42.642;24.812;2023-05-19T01:46:07;96384.69;;;18.59;68.38
5954;BME280;3002;42.642;24.812;2023-05-19T01:48:33;96351.88;;;18.64;68.96
5954;BME280;3002;42.642;24.812;2023-05-19T01:51:00;96342.50;;;18.61;70.66
5954;BME280;3002;42.642;24.812;2023-05-19T01:53:25;96323.38;;;18.33;70.66
5954;BME280;3002;42.642;24.812;2023-05-19T01:55:53;96376.66;;;18.50;70.08
5954;BME280;3002;42.642;24.812;2023-05-19T02:01:40;96388.50;;;19.07;67.98
5954;BME280;3002;42.642;24.812;2023-05-19T02:04:17;96381.16;;;19.07;67.92
5954;BME280;3002;42.642;24.812;2023-05-19T02:09:40;96379.94;;;18.92;67.78
5954;BME280;3002;42.642;24.812;2023-05-19T02:12:15;96399.31;;;18.79;68.30
5954;BME280;3002;42.642;24.812;2023-05-19T02:14:54;96382.97;;;19.03;66.50
5954;BME280;3002;42.642;24.812;2023-05-19T02:17:26;96393.84;;;19.03;66.27
5954;BME280;3002;42.642;24.812;2023-05-19T02:19:53;96381.53;;;18.44;67.77
5954;BME280;3002;42.642;24.812;2023-05-19T02:22:19;96392.59;;;18.64;68.79
5954;BME280;3002;42.642;24.812;2023-05-19T02:24:44;96387.19;;;18.52;68.40
5954;BME280;3002;42.642;24.812;2023-05-19T02:27:11;96381.31;;;18.62;67.58
5954;BME280;3002;42.642;24.812;2023-05-19T02:29:37;96367.75;;;18.37;68.78
5954;BME280;3002;42.642;24.812;2023-05-19T02:32:03;96379.03;;;18.39;69.30
5954;BME280;3002;42.642;24.812;2023-05-19T02:34:28;96368.19;;;18.39;68.68
5954;BME280;3002;42.642;24.812;2023-05-19T02:36:54;96356.97;;;18.41;68.31
5954;BME280;3002;42.642;24.812;2023-05-19T02:39:20;96394.53;;;18.39;68.68
5954;BME280;3002;42.642;24.812;2023-05-19T02:41:46;96394.75;;;18.58;66.29
5954;BME280;3002;42.642;24.812;2023-05-19T02:44:11;96385.59;;;18.51;66.98
5954;BME280;3002;42.642;24.812;2023-05-19T02:46:36;96379.03;;;18.76;66.24
5954;BME280;3002;42.642;24.812;2023-05-19T02:49:02;96410.16;;;18.66;67.27
5954;BME280;3002;42.642;24.812;2023-05-19T02:51:27;96404.75;;;18.42;68.23
5954;BME280;3002;42.642;24.812;2023-05-19T02:53:53;96390.81;;;18.56;68.28
5954;BME280;3002;42.642;24.812;2023-05-19T02:56:18;96385.72;;;18.54;67.59
5954;BME280;3002;42.642;24.812;2023-05-19T02:58:44;96395.09;;;18.57;66.66
5954;BME280;3002;42.642;24.812;2023-05-19T03:01:09;96380.53;;;18.49;67.69
5954;BME280;3002;42.642;24.812;2023-05-19T03:03:35;96366.47;;;18.35;67.68
5954;BME280;3002;42.642;24.812;2023-05-19T03:06:00;96375.09;;;18.37;69.17
5954;BME280;3002;42.642;24.812;2023-05-19T03:08:26;96384.69;;;18.46;69.50
5954;BME280;3002;42.642;24.812;2023-05-19T03:10:52;96358.81;;;18.25;71.11
5954;BME280;3002;42.642;24.812;2023-05-19T03:13:18;96362.53;;;18.20;71.05
5954;BME280;3002;42.642;24.812;2023-05-19T03:15:43;96366.16;;;18.36;70.19
5954;BME280;3002;42.642;24.812;2023-05-19T03:18:09;96382.09;;;18.38;71.11
5954;BME280;3002;42.642;24.812;2023-05-19T03:20:36;96370.44;;;18.37;71.21
5954;BME280;3002;42.642;24.812;2023-05-19T03:23:17;96369.31;;;18.51;70.95
5954;BME280;3002;42.642;24.812;2023-05-19T03:25:44;96388.31;;;18.38;69.91
5954;BME280;3002;42.642;24.812;2023-05-19T03:28:09;96371.69;;;18.40;70.82
5954;BME280;3002;42.642;24.812;2023-05-19T03:30:34;96393.53;;;18.43;71.85
5954;BME280;3002;42.642;24.812;2023-05-19T03:33:00;96409.13;;;18.34;71.63
5954;BME280;3002;42.642;24.812;2023-05-19T03:35:26;96388.66;;;18.37;69.76
5954;BME280;3002;42.642;24.812;2023-05-19T03:37:51;96388.09;;;18.56;69.22
5954;BME280;3002;42.642;24.812;2023-05-19T03:40:17;96398.84;;;18.52;69.86
5954;BME280;3002;42.642;24.812;2023-05-19T03:42:43;96381.31;;;18.50;68.83
5954;BME280;3002;42.642;24.812;2023-05-19T03:45:08;96395.00;;;18.65;68.80
5954;BME280;3002;42.642;24.812;2023-05-19T03:47:34;96381.75;;;18.39;69.53
5954;BME280;3002;42.642;24.812;2023-05-19T03:49:59;96396.03;;;18.49;69.03
5954;BME280;3002;42.642;24.812;2023-05-19T03:52:25;96381.31;;;18.74;68.39
5954;BME280;3002;42.642;24.812;2023-05-19T03:54:50;96353.25;;;18.45;68.97
5954;BME280;3002;42.642;24.812;2023-05-19T03:57:17;96397.25;;;18.39;70.21
5954;BME280;3002;42.642;24.812;2023-05-19T03:59:42;96404.25;;;18.40;70.81
5954;BME280;3002;42.642;24.812;2023-05-19T04:02:08;96411.75;;;18.43;71.10
5954;BME280;3002;42.642;24.812;2023-05-19T04:04:33;96391.16;;;18.66;68.89
5954;BME280;3002;42.642;24.812;2023-05-19T04:06:59;96386.53;;;18.42;69.65
5954;BME280;3002;42.642;24.812;2023-05-19T04:09:25;96417.75;;;18.61;68.89
5954;BME280;3002;42.642;24.812;2023-05-19T04:11:50;96452.53;;;18.80;67.91
5954;BME280;3002;42.642;24.812;2023-05-19T04:14:16;96419.88;;;19.04;67.24
5954;BME280;3002;42.642;24.812;2023-05-19T04:16:41;96469.81;;;19.12;66.52
5954;BME280;3002;42.642;24.812;2023-05-19T04:19:07;96460.19;;;19.55;65.66
5954;BME280;3002;42.642;24.812;2023-05-19T04:21:32;96429.75;;;19.37;64.10
5954;BME280;3002;42.642;24.812;2023-05-19T04:23:58;96430.25;;;19.67;64.51
5954;BME280;3002;42.642;24.812;2023-05-19T04:26:25;96420.16;;;19.39;63.88
5954;BME280;3002;42.642;24.812;2023-05-19T04:28:52;96432.13;;;19.50;64.27
5954;BME280;3002;42.642;24.812;2023-05-19T04:31:18;96436.94;;;19.69;64.12
5954;BME280;3002;42.642;24.812;2023-05-19T04:33:45;96427.34;;;19.47;64.14
5954;BME280;3002;42.642;24.812;2023-05-19T04:36:12;96441.00;;;20.03;62.50
5954;BME280;3002;42.642;24.812;2023-05-19T04:38:38;96442.69;;;19.80;63.27
5954;BME280;3002;42.642;24.812;2023-05-19T04:41:04;96445.59;;;19.87;63.68
5954;BME280;3002;42.642;24.812;2023-05-19T04:43:30;96442.72;;;19.96;64.11
5954;BME280;3002;42.642;24.812;2023-05-19T04:45:56;96457.63;;;19.86;64.59
5954;BME280;3002;42.642;24.812;2023-05-19T04:48:22;96439.63;;;19.82;63.76
5954;BME280;3002;42.642;24.812;2023-05-19T04:50:49;96441.97;;;20.11;62.20
5954;BME280;3002;42.642;24.812;2023-05-19T04:53:16;96475.66;;;20.35;61.31
5954;BME280;3002;42.642;24.812;2023-05-19T04:55:42;96458.25;;;20.39;61.35
5954;BME280;3002;42.642;24.812;2023-05-19T04:58:08;96455.66;;;20.58;61.38
5954;BME280;3002;42.642;24.812;2023-05-19T05:00:33;96458.59;;;20.38;61.75
5954;BME280;3002;42.642;24.812;2023-05-19T05:03:02;96459.13;;;20.43;61.76
5954;BME280;3002;42.642;24.812;2023-05-19T05:05:30;96457.84;;;20.53;62.36
5954;BME280;3002;42.642;24.812;2023-05-19T05:07:56;96463.91;;;20.62;62.27
5954;BME280;3002;42.642;24.812;2023-05-19T05:10:21;96462.28;;;20.29;63.57
5954;BME280;3002;42.642;24.812;2023-05-19T05:12:47;96437.38;;;20.59;62.48
5954;BME280;3002;42.642;24.812;2023-05-19T05:15:13;96464.59;;;20.75;61.43
5954;BME280;3002;42.642;24.812;2023-05-19T05:17:39;96460.28;;;20.74;61.29
5954;BME280;3002;42.642;24.812;2023-05-19T05:20:05;96448.19;;;20.71;62.11
5954;BME280;3002;42.642;24.812;2023-05-19T05:22:31;96458.75;;;21.08;61.15
5954;BME280;3002;42.642;24.812;2023-05-19T05:24:57;96455.25;;;20.92;60.73
5954;BME280;3002;42.642;24.812;2023-05-19T05:27:22;96441.13;;;21.37;58.92
5954;BME280;3002;42.642;24.812;2023-05-19T05:29:48;96461.38;;;21.55;56.32
5954;BME280;3002;42.642;24.812;2023-05-19T05:32:13;96502.16;;;21.48;56.51
5954;BME280;3002;42.642;24.812;2023-05-19T05:34:41;96502.03;;;22.18;55.87
5954;BME280;3002;42.642;24.812;2023-05-19T05:37:06;96482.38;;;22.98;53.80
5954;BME280;3002;42.642;24.812;2023-05-19T05:39:32;96467.06;;;22.47;54.25
5954;BME280;3002;42.642;24.812;2023-05-19T05:41:57;96494.31;;;22.66;52.73
5954;BME280;3002;42.642;24.812;2023-05-19T05:44:23;96509.25;;;22.27;52.81
5954;BME280;3002;42.642;24.812;2023-05-19T05:46:48;96503.59;;;23.04;52.61
5954;BME280;3002;42.642;24.812;2023-05-19T05:49:17;96534.31;;;23.20;51.91
5954;BME280;3002;42.642;24.812;2023-05-19T05:51:43;96530.72;;;22.70;53.88
5954;BME280;3002;42.642;24.812;2023-05-19T05:54:10;96525.28;;;23.16;52.39
5954;BME280;3002;42.642;24.812;2023-05-19T05:56:36;96537.47;;;23.22;52.90
5954;BME280;3002;42.642;24.812;2023-05-19T05:59:02;96537.72;;;22.26;53.08
5954;BME280;3002;42.642;24.812;2023-05-19T06:01:27;96517.00;;;23.13;52.20
5954;BME280;3002;42.642;24.812;2023-05-19T06:03:55;96546.44;;;23.46;52.47
5954;BME280;3002;42.642;24.812;2023-05-19T06:06:20;96549.22;;;23.23;50.36
5954;BME280;3002;42.642;24.812;2023-05-19T06:08:46;96531.91;;;23.98;49.74
5954;BME280;3002;42.642;24.812;2023-05-19T06:11:11;96555.47;;;23.50;50.12
5954;BME280;3002;42.642;24.812;2023-05-19T06:13:37;96548.31;;;23.95;50.22
5954;BME280;3002;42.642;24.812;2023-05-19T06:16:05;96562.59;;;23.81;52.00
5954;BME280;3002;42.642;24.812;2023-05-19T06:18:31;96564.22;;;22.44;53.51
5954;BME280;3002;42.642;24.812;2023-05-19T06:20:56;96550.09;;;24.44;52.02
5954;BME280;3002;42.642;24.812;2023-05-19T06:23:22;96576.34;;;25.78;48.89
5954;BME280;3002;42.642;24.812;2023-05-19T06:25:48;96578.91;;;24.00;51.29
5954;BME280;3002;42.642;24.812;2023-05-19T06:28:13;96574.75;;;24.44;51.04
5954;BME280;3002;42.642;24.812;2023-05-19T06:30:39;96582.94;;;24.10;52.41
5954;BME280;3002;42.642;24.812;2023-05-19T06:33:04;96586.47;;;25.19;50.17
5954;BME280;3002;42.642;24.812;2023-05-19T06:35:30;96588.63;;;24.95;47.63
5954;BME280;3002;42.642;24.812;2023-05-19T06:37:55;96594.00;;;25.25;48.13
5954;BME280;3002;42.642;24.812;2023-05-19T06:40:22;96599.97;;;25.34;47.05
5954;BME280;3002;42.642;24.812;2023-05-19T06:42:47;96602.16;;;25.15;48.18
5954;BME280;3002;42.642;24.812;2023-05-19T06:45:13;96613.75;;;25.97;46.49
5954;BME280;3002;42.642;24.812;2023-05-19T06:47:38;96607.97;;;26.09;45.80
5954;BME280;3002;42.642;24.812;2023-05-19T06:50:09;96604.78;;;27.08;43.91
5954;BME280;3002;42.642;24.812;2023-05-19T06:52:35;96604.03;;;26.13;45.40
5954;BME280;3002;42.642;24.812;2023-05-19T06:55:01;96595.53;;;25.19;48.12
5954;BME280;3002;42.642;24.812;2023-05-19T06:57:26;96613.41;;;26.02;46.69
5954;BME280;3002;42.642;24.812;2023-05-19T06:59:52;96604.47;;;26.26;46.29
